ZBTJ/TSN METAR and TAF weather

Enter ICAO airport designator
Station Type Date Time Source
ZBTJ METAR 2019/12/06 14:00 UTC NOAA

ZBTJ 061400Z VRB01MPS 7000 NSC 01/M09 Q1032 NOSIG


Station Type Date Time Source
ZBTJ Decoded METAR 2019/12/06 14:00 UTC NOAA

Tianjin / Zhangguizhu, China (ZBTJ) 39-11N 117-21E
Dec 06, 2019 - 09:00 AM EST / 2019.12.06 1400 UTC
Wind: Variable at 2 MPH (2 KT):0
Visibility: 4 mile(s):0
Temperature: 33 F (1 C)
Dew Point: 15 F (-9 C)
Relative Humidity: 47%
Pressure (altimeter): 30.47 in. Hg (1032 hPa)
ob: ZBTJ 061400Z VRB01MPS 7000 NSC 01/M09 Q1032 NOSIG
cycle: 14

Station Type Date Time Source
ZBTJ TAF 2019/12/06 12:03 UTC NOAA

TAF ZBTJ 060851Z 0612/0712 23004MPS 5000 HZ NSC TX06/0707Z TNM06/22Z

Example: see airport list